createdAt,value
2024-02-16T00:03:10.915Z,0.80
2024-02-16T00:08:14.331Z,0.90
2024-02-16T00:13:16.878Z,1.20
2024-02-16T00:18:19.152Z,1.20
2024-02-16T00:23:23.541Z,0.90
2024-02-16T00:28:25.752Z,0.93
2024-02-16T00:33:30.381Z,1.02
2024-02-16T00:38:32.680Z,1.00
2024-02-16T00:43:35.122Z,0.95
2024-02-16T00:48:37.536Z,0.80
2024-02-16T00:53:39.755Z,0.93
2024-02-16T00:58:45.659Z,1.07
2024-02-16T01:03:47.824Z,1.00
2024-02-16T01:08:50.142Z,1.05
2024-02-16T01:13:52.549Z,1.20
2024-02-16T01:18:54.925Z,0.90
2024-02-16T01:24:00.557Z,1.20
2024-02-16T01:29:03.470Z,0.90
2024-02-16T01:34:06.254Z,0.93
2024-02-16T01:39:08.578Z,0.80
2024-02-16T01:44:10.763Z,1.00
2024-02-16T01:49:15.771Z,0.88
2024-02-16T01:54:19.121Z,0.80
2024-02-16T01:59:21.703Z,0.90
2024-02-16T02:04:24.277Z,1.10
2024-02-16T02:09:26.771Z,0.90
2024-02-16T02:14:29.252Z,0.80
2024-02-16T02:19:31.716Z,0.93
2024-02-16T02:24:34.531Z,0.90
2024-02-16T02:29:36.713Z,1.00
2024-02-16T02:34:39.016Z,1.00
2024-02-16T02:39:41.606Z,1.00
2024-02-16T02:44:50.855Z,1.00
2024-02-16T02:49:53.165Z,0.93
2024-02-16T02:54:55.341Z,0.83
2024-02-16T03:00:05.271Z,1.05
2024-02-16T03:05:08.384Z,1.05
2024-02-16T03:10:10.886Z,0.80
2024-02-16T03:15:13.307Z,0.70
2024-02-16T03:20:15.528Z,0.90
2024-02-16T03:25:17.737Z,1.10
2024-02-16T03:30:20.180Z,0.80
2024-02-16T03:35:22.423Z,1.00
2024-02-16T03:40:25.790Z,1.08
2024-02-16T03:45:31.089Z,0.70
2024-02-16T03:50:33.292Z,0.80
2024-02-16T03:55:37.643Z,0.70
2024-02-16T04:00:39.948Z,0.90
2024-02-16T04:05:42.440Z,0.80
2024-02-16T04:10:44.691Z,0.80
2024-02-16T04:15:47.427Z,0.70
2024-02-16T04:20:50.378Z,0.90
2024-02-16T04:25:53.170Z,0.95
2024-02-16T04:30:55.324Z,0.80
2024-02-16T04:35:57.515Z,1.00
2024-02-16T04:40:59.769Z,0.70
2024-02-16T04:46:02.264Z,1.13
2024-02-16T04:51:04.409Z,1.10
2024-02-16T04:56:06.875Z,0.90
2024-02-16T05:01:09.172Z,1.07
2024-02-16T05:06:11.690Z,1.00
2024-02-16T05:11:14.628Z,0.77
2024-02-16T05:16:17.373Z,0.75
2024-02-16T05:21:20.121Z,1.23
2024-02-16T05:26:22.371Z,1.00
2024-02-16T05:31:24.622Z,0.83
2024-02-16T05:36:31.153Z,0.90
2024-02-16T05:41:34.484Z,1.10
2024-02-16T05:46:38.988Z,0.80
2024-02-16T05:51:42.149Z,0.70
2024-02-16T05:56:45.537Z,0.90
2024-02-16T06:01:48.368Z,1.10
2024-02-16T06:06:50.857Z,0.90
2024-02-16T06:11:53.124Z,1.20
2024-02-16T06:17:00.933Z,1.15
2024-02-16T06:22:03.312Z,1.27
2024-02-16T06:27:05.730Z,1.10
2024-02-16T06:32:08.307Z,0.80
2024-02-16T06:37:10.449Z,1.00
2024-02-16T06:47:15.449Z,1.15
2024-02-16T06:52:17.643Z,1.13
2024-02-16T06:57:21.587Z,1.27
2024-02-16T07:02:23.882Z,1.10
2024-02-16T07:07:26.171Z,1.13
2024-02-16T07:12:28.389Z,0.98
2024-02-16T07:17:30.741Z,0.93
2024-02-16T07:22:34.198Z,1.40
2024-02-16T07:27:36.366Z,1.03
2024-02-16T07:32:38.836Z,1.20
2024-02-16T07:37:43.154Z,1.10
2024-02-16T07:42:46.300Z,1.10
2024-02-16T07:47:48.638Z,0.87
2024-02-16T07:52:51.887Z,1.17
2024-02-16T07:57:54.178Z,1.20
2024-02-16T08:02:56.585Z,1.10
2024-02-16T08:07:58.864Z,1.33
2024-02-16T08:13:01.086Z,1.10
2024-02-16T08:18:04.286Z,1.30
2024-02-16T08:23:06.634Z,1.23
2024-02-16T08:28:09.927Z,1.10
2024-02-16T08:33:13.928Z,1.20
2024-02-16T08:38:16.219Z,1.20
2024-02-16T08:43:18.641Z,1.23
2024-02-16T08:48:20.945Z,1.30
2024-02-16T08:53:23.232Z,1.30
2024-02-16T08:58:25.401Z,1.30
2024-02-16T09:03:28.204Z,1.20
2024-02-16T09:08:34.097Z,1.40
2024-02-16T09:13:41.628Z,1.10
2024-02-16T09:18:44.164Z,0.93
2024-02-16T09:23:46.442Z,1.10
2024-02-16T09:28:48.754Z,1.07
2024-02-16T09:33:53.143Z,1.35
2024-02-16T09:38:55.543Z,1.30
2024-02-16T09:43:57.809Z,1.23
2024-02-16T09:49:04.053Z,1.20
2024-02-16T09:54:10.417Z,1.10
2024-02-16T09:59:13.463Z,1.10
2024-02-16T10:04:16.367Z,1.23
2024-02-16T10:09:27.942Z,14.80
2024-02-16T10:14:33.196Z,2.50
2024-02-16T10:19:44.461Z,2.70
2024-02-16T10:24:47.274Z,1.40
2024-02-16T10:29:53.101Z,1.45
2024-02-16T10:34:55.812Z,1.80
2024-02-16T10:39:59.169Z,2.00
2024-02-16T10:45:02.456Z,3.13
2024-02-16T10:50:05.811Z,1.27
2024-02-16T10:55:10.415Z,1.60
2024-02-16T11:00:14.174Z,1.10
2024-02-16T11:05:20.513Z,0.90
2024-02-16T11:10:22.768Z,1.13
2024-02-16T11:15:32.329Z,1.17
2024-02-16T11:20:41.903Z,1.27
2024-02-16T11:25:54.321Z,1.17
2024-02-16T11:30:59.655Z,1.70
2024-02-16T11:36:09.711Z,1.30
2024-02-16T11:41:12.587Z,2.08
2024-02-16T11:46:16.151Z,1.35
2024-02-16T11:51:19.000Z,1.50
2024-02-16T11:56:25.830Z,1.55
2024-02-16T12:01:28.728Z,1.30
2024-02-16T12:06:31.442Z,1.30
2024-02-16T12:11:34.259Z,1.40
2024-02-16T12:16:36.547Z,1.50
2024-02-16T12:21:40.211Z,2.90
2024-02-16T12:26:43.017Z,1.70
2024-02-16T12:31:50.512Z,1.80
2024-02-16T12:36:52.793Z,1.63
2024-02-16T12:41:55.206Z,1.40
2024-02-16T12:46:57.357Z,1.70
2024-02-16T12:52:00.052Z,1.90
2024-02-16T12:57:02.579Z,1.60
2024-02-16T13:02:05.201Z,1.70
2024-02-16T13:07:07.625Z,1.90
2024-02-16T13:12:10.274Z,1.83
2024-02-16T13:17:13.612Z,1.77
2024-02-16T13:22:16.210Z,1.80
2024-02-16T13:27:18.745Z,2.20
2024-02-16T13:32:21.241Z,2.42
2024-02-16T13:37:23.375Z,2.00
2024-02-16T13:42:28.004Z,2.20
2024-02-16T13:47:30.328Z,2.13
2024-02-16T13:52:32.488Z,2.50
2024-02-16T13:57:34.615Z,3.03
2024-02-16T14:02:36.824Z,3.33
2024-02-16T14:07:46.597Z,3.70
2024-02-16T14:12:53.489Z,3.53
2024-02-16T14:17:56.032Z,3.97
2024-02-16T14:22:58.290Z,4.78
2024-02-16T14:28:00.624Z,4.40
2024-02-16T14:33:05.775Z,4.95
2024-02-16T14:38:08.442Z,3.92
2024-02-16T14:43:11.780Z,4.30
2024-02-16T14:48:14.489Z,4.38
2024-02-16T14:53:24.325Z,4.70
2024-02-16T14:58:27.059Z,4.88
2024-02-16T15:03:31.798Z,6.00
2024-02-16T15:08:34.351Z,6.03
2024-02-16T15:13:38.840Z,5.75
2024-02-16T15:18:41.109Z,7.40
2024-02-16T15:23:43.379Z,6.78
2024-02-16T15:28:45.503Z,7.57
2024-02-16T15:33:47.953Z,7.57
2024-02-16T15:38:55.389Z,6.60
2024-02-16T15:44:03.734Z,7.32
2024-02-16T15:49:06.876Z,6.67
2024-02-16T15:54:09.377Z,6.27
2024-02-16T15:59:11.757Z,5.22
2024-02-16T16:04:15.091Z,4.93
2024-02-16T16:09:17.459Z,4.90
2024-02-16T16:14:19.797Z,4.75
2024-02-16T16:19:23.336Z,3.87
2024-02-16T16:24:25.665Z,3.72
2024-02-16T16:29:27.964Z,3.70
2024-02-16T16:34:30.588Z,3.38
2024-02-16T16:39:33.317Z,3.08
2024-02-16T16:44:35.949Z,3.28
2024-02-16T16:49:42.322Z,3.40
2024-02-16T16:54:44.799Z,3.10
2024-02-16T16:59:47.035Z,3.28
2024-02-16T17:04:49.485Z,3.28
2024-02-16T17:09:55.457Z,3.58
2024-02-16T17:14:58.171Z,3.30
2024-02-16T17:20:01.433Z,3.35
2024-02-16T17:25:09.390Z,3.00
2024-02-16T17:30:12.696Z,2.87
2024-02-16T17:35:15.620Z,3.15
2024-02-16T17:40:19.107Z,3.47
2024-02-16T17:45:22.390Z,3.85
2024-02-16T17:50:25.770Z,3.80
2024-02-16T17:55:28.608Z,4.22
2024-02-16T18:00:31.392Z,3.25
2024-02-16T18:05:33.901Z,3.35
2024-02-16T18:10:36.692Z,3.58
2024-02-16T18:15:39.198Z,3.30
2024-02-16T18:20:41.349Z,3.73
2024-02-16T18:25:44.283Z,3.88
2024-02-16T18:30:46.515Z,4.70
2024-02-16T18:35:48.737Z,4.70
2024-02-16T18:40:50.932Z,4.75
2024-02-16T18:45:53.531Z,4.63
2024-02-16T18:50:55.938Z,4.10
2024-02-16T18:55:58.206Z,3.67
2024-02-16T19:01:00.500Z,4.20
2024-02-16T19:06:02.795Z,4.18
2024-02-16T19:11:05.119Z,4.33
2024-02-16T19:16:07.984Z,3.88
2024-02-16T19:21:10.417Z,3.13
2024-02-16T19:26:12.729Z,3.00
2024-02-16T19:31:15.145Z,3.07
2024-02-16T19:36:17.618Z,3.00
2024-02-16T19:41:20.152Z,3.00
2024-02-16T19:46:22.306Z,3.17
2024-02-16T19:51:24.553Z,3.25
2024-02-16T19:56:26.839Z,3.67
2024-02-16T20:01:29.290Z,3.70
2024-02-16T20:06:31.542Z,4.40
2024-02-16T20:11:33.957Z,4.40
2024-02-16T20:16:39.108Z,4.70
2024-02-16T20:21:41.482Z,4.60
2024-02-16T20:26:43.748Z,5.38
2024-02-16T20:31:45.878Z,4.53
2024-02-16T20:36:50.996Z,4.28
2024-02-16T20:41:53.217Z,4.20
2024-02-16T20:46:55.578Z,5.55
2024-02-16T20:51:57.752Z,4.23
2024-02-16T20:57:01.442Z,3.83
2024-02-16T21:02:03.913Z,3.17
2024-02-16T21:07:06.382Z,3.00
2024-02-16T21:12:09.280Z,2.80
2024-02-16T21:17:11.587Z,2.60
2024-02-16T21:22:14.737Z,2.55
2024-02-16T21:27:17.203Z,2.70
2024-02-16T21:32:19.802Z,3.13
2024-02-16T21:37:22.086Z,3.63
2024-02-16T21:42:24.885Z,3.85
2024-02-16T21:47:28.415Z,4.30
2024-02-16T21:52:30.608Z,3.83
2024-02-16T21:57:32.843Z,4.80
2024-02-16T22:02:35.110Z,3.88
2024-02-16T22:07:37.419Z,4.63
2024-02-16T22:12:39.779Z,4.77
2024-02-16T22:17:41.951Z,4.78
2024-02-16T22:22:44.462Z,5.47
2024-02-16T22:27:47.109Z,4.90
2024-02-16T22:32:49.564Z,5.25
2024-02-16T22:37:51.756Z,5.47
2024-02-16T22:42:54.215Z,5.28
2024-02-16T22:47:56.518Z,5.20
2024-02-16T22:52:58.731Z,6.15
2024-02-16T22:58:01.564Z,5.82
2024-02-16T23:03:05.351Z,6.05
2024-02-16T23:08:08.184Z,6.17
2024-02-16T23:13:13.478Z,6.10
2024-02-16T23:18:16.055Z,6.80
2024-02-16T23:23:18.769Z,6.28
2024-02-16T23:28:21.581Z,6.18
2024-02-16T23:33:24.013Z,6.80
2024-02-16T23:38:26.417Z,6.72
2024-02-16T23:43:29.814Z,6.67
2024-02-16T23:48:32.209Z,7.47
2024-02-16T23:53:35.304Z,6.35
2024-02-16T23:58:37.460Z,7.45
